createdAt,value
2023-02-19T00:01:22.116Z,15.20
2023-02-19T00:03:52.228Z,14.40
2023-02-19T00:06:20.153Z,16.00
2023-02-19T00:08:47.120Z,17.40
2023-02-19T00:11:16.430Z,14.90
2023-02-19T00:13:45.185Z,15.30
2023-02-19T00:16:22.156Z,15.50
2023-02-19T00:18:49.343Z,15.50
2023-02-19T00:21:17.218Z,16.13
2023-02-19T00:23:45.778Z,17.63
2023-02-19T00:26:18.479Z,18.50
2023-02-19T00:28:49.057Z,20.77
2023-02-19T00:31:32.492Z,18.90
2023-02-19T00:34:04.975Z,21.63
2023-02-19T00:36:32.898Z,21.87
2023-02-19T00:38:59.575Z,19.53
2023-02-19T00:41:26.436Z,19.17
2023-02-19T00:43:57.533Z,18.40
2023-02-19T00:46:38.880Z,20.60
2023-02-19T00:49:07.169Z,18.40
2023-02-19T00:51:36.490Z,15.33
2023-02-19T00:54:04.334Z,17.23
2023-02-19T00:56:31.441Z,15.30
2023-02-19T00:58:58.120Z,15.50
2023-02-19T01:01:25.005Z,16.87
2023-02-19T01:03:51.899Z,18.00
2023-02-19T01:06:20.395Z,16.23
2023-02-19T01:08:48.167Z,18.30
2023-02-19T01:11:16.132Z,18.77
2023-02-19T01:13:43.528Z,17.90
2023-02-19T01:16:23.743Z,18.50
2023-02-19T01:18:51.102Z,19.70
2023-02-19T01:21:24.184Z,18.90
2023-02-19T01:23:51.862Z,19.37
2023-02-19T01:26:22.631Z,19.37
2023-02-19T01:28:49.470Z,20.23
2023-02-19T01:31:21.722Z,16.60
2023-02-19T01:33:50.806Z,16.40
2023-02-19T01:36:18.194Z,16.90
2023-02-19T01:38:45.603Z,16.40
2023-02-19T01:41:16.360Z,17.97
2023-02-19T01:44:03.412Z,15.87
2023-02-19T01:46:35.095Z,16.50
2023-02-19T01:49:19.027Z,16.10
2023-02-19T01:51:52.382Z,18.23
2023-02-19T01:54:23.205Z,16.40
2023-02-19T01:56:51.220Z,17.60
2023-02-19T01:59:18.768Z,17.40
2023-02-19T02:01:45.604Z,16.50
2023-02-19T02:04:14.332Z,16.43
2023-02-19T02:06:52.787Z,18.27
2023-02-19T02:09:39.592Z,16.07
2023-02-19T02:12:06.612Z,15.23
2023-02-19T02:14:40.015Z,15.57
2023-02-19T02:17:30.281Z,14.93
2023-02-19T02:20:15.500Z,16.77
2023-02-19T02:22:48.226Z,14.60
2023-02-19T02:25:21.110Z,13.70
2023-02-19T02:28:10.765Z,13.50
2023-02-19T02:30:45.171Z,13.93
2023-02-19T02:33:37.857Z,14.30
2023-02-19T02:36:17.621Z,16.80
2023-02-19T02:38:46.925Z,14.40
2023-02-19T02:41:15.532Z,14.40
2023-02-19T02:43:43.284Z,15.50
2023-02-19T02:46:12.730Z,15.63
2023-02-19T02:48:49.381Z,17.67
2023-02-19T02:51:29.464Z,16.47
2023-02-19T02:54:33.274Z,16.07
2023-02-19T02:57:04.440Z,17.83
2023-02-19T02:59:38.162Z,15.73
2023-02-19T03:02:18.987Z,17.30
2023-02-19T03:05:25.023Z,15.53
2023-02-19T03:08:03.605Z,16.57
2023-02-19T03:10:33.069Z,16.57
2023-02-19T03:13:20.920Z,15.23
2023-02-19T03:16:12.644Z,16.53
2023-02-19T03:19:01.973Z,16.57
2023-02-19T03:21:29.296Z,15.93
2023-02-19T03:24:16.169Z,16.77
2023-02-19T03:26:45.495Z,15.90
2023-02-19T03:29:24.698Z,16.37
2023-02-19T03:32:05.291Z,17.00
2023-02-19T03:34:57.163Z,17.10
2023-02-19T03:37:41.332Z,16.90
2023-02-19T03:40:08.759Z,15.40
2023-02-19T03:42:50.090Z,15.27
2023-02-19T03:45:33.819Z,19.10
2023-02-19T03:48:28.795Z,17.13
2023-02-19T03:51:12.678Z,17.60
2023-02-19T03:53:52.046Z,18.13
2023-02-19T03:56:42.937Z,17.17
2023-02-19T03:59:32.705Z,17.60
2023-02-19T04:02:05.443Z,17.30
2023-02-19T04:04:39.030Z,16.47
2023-02-19T04:07:05.927Z,17.77
2023-02-19T04:09:43.478Z,17.40
2023-02-19T04:12:15.383Z,17.70
2023-02-19T04:14:47.997Z,18.73
2023-02-19T04:17:39.802Z,18.43
2023-02-19T04:20:10.020Z,17.13
2023-02-19T04:22:39.031Z,18.37
2023-02-19T04:25:06.219Z,19.00
2023-02-19T04:27:36.973Z,18.90
2023-02-19T04:30:09.137Z,17.33
2023-02-19T04:32:35.855Z,17.40
2023-02-19T04:35:02.568Z,17.77
2023-02-19T04:37:29.191Z,19.77
2023-02-19T04:39:55.865Z,18.10
2023-02-19T04:42:22.532Z,17.40
2023-02-19T04:44:49.171Z,19.67
2023-02-19T04:47:18.988Z,18.47
2023-02-19T04:49:46.049Z,16.90
2023-02-19T04:52:13.165Z,18.00
2023-02-19T04:54:40.066Z,16.30
2023-02-19T04:57:06.771Z,16.47
2023-02-19T04:59:33.528Z,18.37
2023-02-19T05:02:00.206Z,14.73
2023-02-19T05:04:27.028Z,18.40
2023-02-19T05:06:53.727Z,16.17
2023-02-19T05:09:20.445Z,16.20
2023-02-19T05:11:47.078Z,17.70
2023-02-19T05:14:13.826Z,16.73
2023-02-19T05:16:40.613Z,17.57
2023-02-19T05:19:07.274Z,17.13
2023-02-19T05:21:33.934Z,16.77
2023-02-19T05:24:00.653Z,16.27
2023-02-19T05:26:27.273Z,19.33
2023-02-19T05:28:54.298Z,18.53
2023-02-19T05:31:21.676Z,18.53
2023-02-19T05:33:51.153Z,18.23
2023-02-19T05:36:20.432Z,15.33
2023-02-19T05:38:47.640Z,17.10
2023-02-19T05:41:16.586Z,16.90
2023-02-19T05:43:44.866Z,15.70
2023-02-19T05:46:14.206Z,17.93
2023-02-19T05:48:41.571Z,18.67
2023-02-19T05:51:11.575Z,18.87
2023-02-19T05:53:39.285Z,16.70
2023-02-19T05:56:23.700Z,19.00
2023-02-19T05:58:50.908Z,19.70
2023-02-19T06:01:19.300Z,20.67
2023-02-19T06:03:46.139Z,20.67
2023-02-19T06:06:18.356Z,18.30
2023-02-19T06:08:45.434Z,18.87
2023-02-19T06:11:12.534Z,19.97
2023-02-19T06:13:39.411Z,22.50
2023-02-19T06:16:07.746Z,22.07
2023-02-19T06:18:35.226Z,19.13
2023-02-19T06:21:06.171Z,20.70
2023-02-19T06:23:33.649Z,18.70
2023-02-19T06:26:07.406Z,18.70
2023-02-19T06:28:34.080Z,18.23
2023-02-19T06:31:00.934Z,17.97
2023-02-19T06:33:28.141Z,19.77
2023-02-19T06:35:57.682Z,20.77
2023-02-19T06:38:24.352Z,20.07
2023-02-19T06:40:51.018Z,18.20
2023-02-19T06:43:17.670Z,21.60
2023-02-19T06:45:44.359Z,20.80
2023-02-19T06:48:11.064Z,22.10
2023-02-19T06:50:37.728Z,21.63
2023-02-19T06:53:04.557Z,22.80
2023-02-19T06:55:31.605Z,22.50
2023-02-19T06:57:58.237Z,21.77
2023-02-19T07:00:25.052Z,20.43
2023-02-19T07:02:56.362Z,22.73
2023-02-19T07:05:23.840Z,22.53
2023-02-19T07:07:50.658Z,22.37
2023-02-19T07:10:17.550Z,22.93
2023-02-19T07:12:44.370Z,20.33
2023-02-19T07:15:11.169Z,17.80
2023-02-19T07:17:37.812Z,20.07
2023-02-19T07:20:04.774Z,19.77
2023-02-19T07:22:31.433Z,15.87
2023-02-19T07:24:58.073Z,20.77
2023-02-19T07:27:24.698Z,21.47
2023-02-19T07:29:51.328Z,20.70
2023-02-19T07:32:18.027Z,21.00
2023-02-19T07:34:44.698Z,20.70
2023-02-19T07:37:11.338Z,21.77
2023-02-19T07:39:38.016Z,19.97
2023-02-19T07:42:04.838Z,20.33
2023-02-19T07:44:32.404Z,20.63
2023-02-19T07:46:59.076Z,15.83
2023-02-19T07:49:25.774Z,18.87
2023-02-19T07:51:52.504Z,16.30
2023-02-19T07:54:19.167Z,18.97
2023-02-19T07:56:45.837Z,17.93
2023-02-19T07:59:12.499Z,19.73
2023-02-19T08:01:57.656Z,19.13
2023-02-19T08:04:24.362Z,19.30
2023-02-19T08:06:53.183Z,18.70
2023-02-19T08:09:19.895Z,19.53
2023-02-19T08:12:05.343Z,19.27
2023-02-19T08:14:32.144Z,19.10
2023-02-19T08:16:59.168Z,19.40
2023-02-19T08:19:26.110Z,17.73
2023-02-19T08:21:53.556Z,17.50
2023-02-19T08:24:20.481Z,18.30
2023-02-19T08:26:47.142Z,16.10
2023-02-19T08:29:13.810Z,17.93
2023-02-19T08:31:40.581Z,17.33
2023-02-19T08:34:07.335Z,17.57
2023-02-19T08:36:34.017Z,15.50
2023-02-19T08:39:00.702Z,15.40
2023-02-19T08:41:28.055Z,15.83
2023-02-19T08:43:54.733Z,16.30
2023-02-19T08:46:22.587Z,18.63
2023-02-19T08:48:49.905Z,16.87
2023-02-19T08:51:16.677Z,15.93
2023-02-19T08:53:43.399Z,16.43
2023-02-19T08:56:15.846Z,17.57
2023-02-19T08:58:42.706Z,15.47
2023-02-19T09:01:11.984Z,18.80
2023-02-19T09:03:39.133Z,18.10
2023-02-19T09:06:06.080Z,19.10
2023-02-19T09:08:32.914Z,17.37
2023-02-19T09:11:04.564Z,19.60
2023-02-19T09:13:31.470Z,17.50
2023-02-19T09:15:58.380Z,16.93
2023-02-19T09:18:26.238Z,17.47
2023-02-19T09:20:53.033Z,17.00
2023-02-19T09:23:19.881Z,15.93
2023-02-19T09:25:46.532Z,16.43
2023-02-19T09:28:13.254Z,16.27
2023-02-19T09:30:40.017Z,14.97
2023-02-19T09:33:06.708Z,14.20
2023-02-19T09:35:33.780Z,14.20
2023-02-19T09:38:01.893Z,14.40
2023-02-19T09:40:30.045Z,13.67
2023-02-19T09:42:57.230Z,14.10
2023-02-19T09:45:25.993Z,14.10
2023-02-19T09:47:58.422Z,12.87
2023-02-19T09:50:37.201Z,13.47
2023-02-19T09:53:12.761Z,13.30
2023-02-19T09:55:42.368Z,11.93
2023-02-19T09:58:25.520Z,12.23
2023-02-19T10:00:54.238Z,12.47
2023-02-19T10:03:34.155Z,12.00
2023-02-19T10:06:09.339Z,12.33
2023-02-19T10:08:39.640Z,11.93
2023-02-19T10:11:07.023Z,11.93
2023-02-19T10:13:37.419Z,11.33
2023-02-19T10:16:07.547Z,10.77
2023-02-19T10:18:41.114Z,10.97
2023-02-19T10:21:10.771Z,9.97
2023-02-19T10:23:39.370Z,9.90
2023-02-19T10:26:06.028Z,11.13
2023-02-19T10:28:36.344Z,10.30
2023-02-19T10:31:07.516Z,9.67
2023-02-19T10:33:43.899Z,9.70
2023-02-19T10:36:48.440Z,10.00
2023-02-19T10:39:42.155Z,10.40
2023-02-19T10:42:35.012Z,8.77
2023-02-19T10:45:03.863Z,9.47
2023-02-19T10:47:33.045Z,9.77
2023-02-19T10:50:04.020Z,11.33
2023-02-19T10:52:35.185Z,9.90
2023-02-19T10:55:25.683Z,9.03
2023-02-19T10:57:52.357Z,9.40
2023-02-19T11:00:30.380Z,9.30
2023-02-19T11:03:20.545Z,10.97
2023-02-19T11:05:56.019Z,10.47
2023-02-19T11:08:24.200Z,10.13
2023-02-19T11:10:51.497Z,10.83
2023-02-19T11:13:30.257Z,10.70
2023-02-19T11:15:59.027Z,9.83
2023-02-19T11:18:28.762Z,10.07
2023-02-19T11:21:06.924Z,9.63
2023-02-19T11:23:43.641Z,10.50
2023-02-19T11:26:23.009Z,25.30
2023-02-19T11:29:01.032Z,10.47
2023-02-19T11:31:34.152Z,8.70
2023-02-19T11:34:29.674Z,11.67
2023-02-19T11:37:17.023Z,9.47
2023-02-19T11:39:46.584Z,8.80
2023-02-19T11:42:32.742Z,9.27
2023-02-19T11:45:20.611Z,8.80
2023-02-19T11:48:02.325Z,9.50
2023-02-19T11:50:50.319Z,9.93
2023-02-19T11:53:28.605Z,10.17
2023-02-19T11:56:33.570Z,8.80
2023-02-19T11:59:39.361Z,9.60
2023-02-19T12:02:27.456Z,9.00
2023-02-19T12:05:18.893Z,8.10
2023-02-19T12:08:23.383Z,7.20
2023-02-19T12:11:11.742Z,7.27
2023-02-19T12:13:56.242Z,7.53
2023-02-19T12:16:37.911Z,8.80
2023-02-19T12:19:42.345Z,9.07
2023-02-19T12:22:16.943Z,8.20
2023-02-19T12:24:55.926Z,7.87
2023-02-19T12:27:30.929Z,9.20
2023-02-19T12:30:17.218Z,9.03
2023-02-19T12:33:27.093Z,9.07
2023-02-19T12:36:09.593Z,9.97
2023-02-19T12:38:48.689Z,9.37
2023-02-19T12:41:51.016Z,9.60
2023-02-19T12:44:23.117Z,10.80
2023-02-19T12:46:56.280Z,9.10
2023-02-19T12:49:33.132Z,9.00
2023-02-19T12:52:06.518Z,8.40
2023-02-19T12:54:38.121Z,8.07
2023-02-19T12:57:22.818Z,8.50
2023-02-19T13:00:12.042Z,9.07
2023-02-19T13:02:54.577Z,8.70
2023-02-19T13:05:38.601Z,7.80
2023-02-19T13:08:13.641Z,9.23
2023-02-19T13:10:49.357Z,8.20
2023-02-19T13:13:31.872Z,13.03
2023-02-19T13:16:09.881Z,9.93
2023-02-19T13:18:45.265Z,10.07
2023-02-19T13:21:35.319Z,9.93
2023-02-19T13:24:07.516Z,10.30
2023-02-19T13:26:55.329Z,10.03
2023-02-19T13:29:27.644Z,10.47
2023-02-19T13:32:03.501Z,11.03
2023-02-19T13:34:47.894Z,12.47
2023-02-19T13:37:16.641Z,12.37
2023-02-19T13:39:51.992Z,10.83
2023-02-19T13:42:27.092Z,11.23
2023-02-19T13:44:57.927Z,11.83
2023-02-19T13:47:46.321Z,11.70
2023-02-19T13:50:25.705Z,11.43
2023-02-19T13:52:54.505Z,11.40
2023-02-19T13:55:42.019Z,11.40
2023-02-19T13:58:47.448Z,11.60
2023-02-19T14:01:14.594Z,10.37
2023-02-19T14:04:06.630Z,13.57
2023-02-19T14:07:04.401Z,11.53
2023-02-19T14:09:37.068Z,12.57
2023-02-19T14:12:05.563Z,12.33
2023-02-19T14:14:48.794Z,13.00
2023-02-19T14:17:41.716Z,12.60
2023-02-19T14:20:17.338Z,14.80
2023-02-19T14:22:55.247Z,17.33
2023-02-19T14:25:29.986Z,11.03
2023-02-19T14:28:20.672Z,10.63
2023-02-19T14:31:00.628Z,9.47
2023-02-19T14:33:31.359Z,11.10
2023-02-19T14:36:18.260Z,9.47
2023-02-19T14:38:57.984Z,10.03
2023-02-19T14:41:25.845Z,13.10
2023-02-19T14:43:55.318Z,8.33
2023-02-19T14:46:30.485Z,9.37
2023-02-19T14:49:07.230Z,10.73
2023-02-19T14:51:39.475Z,9.17
2023-02-19T14:54:20.389Z,10.27
2023-02-19T14:56:51.178Z,10.47
2023-02-19T14:59:22.998Z,8.40
2023-02-19T15:01:55.077Z,7.20
2023-02-19T15:04:24.290Z,7.20
2023-02-19T15:06:53.055Z,6.57
2023-02-19T15:09:21.492Z,7.20
2023-02-19T15:11:48.868Z,7.67
2023-02-19T15:14:23.675Z,7.33
2023-02-19T15:16:57.257Z,8.57
2023-02-19T15:19:24.110Z,8.07
2023-02-19T15:21:50.990Z,8.20
2023-02-19T15:24:18.908Z,7.30
2023-02-19T15:26:50.952Z,8.73
2023-02-19T15:29:20.162Z,10.03
2023-02-19T15:31:52.772Z,16.80
2023-02-19T15:34:30.152Z,13.10
2023-02-19T15:37:06.345Z,15.33
2023-02-19T15:39:39.170Z,13.53
2023-02-19T15:42:08.188Z,12.30
2023-02-19T15:44:49.768Z,12.33
2023-02-19T15:47:41.097Z,15.00
2023-02-19T15:50:20.362Z,14.83
2023-02-19T15:53:09.212Z,13.00
2023-02-19T15:55:40.365Z,11.57
2023-02-19T15:58:18.684Z,13.10
2023-02-19T16:00:50.618Z,14.60
2023-02-19T16:03:23.122Z,14.67
2023-02-19T16:06:03.576Z,14.70
2023-02-19T16:08:35.299Z,16.47
2023-02-19T16:11:05.473Z,14.37
2023-02-19T16:13:34.390Z,16.03
2023-02-19T16:16:16.701Z,15.73
2023-02-19T16:18:49.327Z,12.87
2023-02-19T16:21:20.140Z,12.63
2023-02-19T16:23:51.001Z,15.37
2023-02-19T16:26:18.209Z,14.30
2023-02-19T16:28:49.962Z,14.13
2023-02-19T16:31:19.744Z,14.43
2023-02-19T16:33:48.659Z,13.67
2023-02-19T16:36:39.162Z,14.77
2023-02-19T16:39:08.574Z,14.27
2023-02-19T16:41:41.192Z,15.63
2023-02-19T16:44:27.326Z,13.70
2023-02-19T16:47:12.167Z,15.43
2023-02-19T16:49:40.169Z,16.70
2023-02-19T16:52:06.888Z,16.83
2023-02-19T16:54:33.693Z,17.03
2023-02-19T16:57:00.850Z,17.30
2023-02-19T16:59:27.554Z,20.77
2023-02-19T17:01:54.192Z,27.33
2023-02-19T17:04:20.883Z,25.13
2023-02-19T17:06:47.840Z,28.20
2023-02-19T17:09:14.601Z,28.17
2023-02-19T17:11:41.312Z,17.17
2023-02-19T17:14:09.166Z,17.63
2023-02-19T17:16:40.075Z,19.10
2023-02-19T17:19:18.013Z,28.77
2023-02-19T17:21:46.521Z,19.23
2023-02-19T17:24:14.126Z,19.67
2023-02-19T17:26:41.284Z,23.77
2023-02-19T17:29:13.824Z,14.70
2023-02-19T17:31:40.681Z,19.20
2023-02-19T17:34:07.352Z,15.20
2023-02-19T17:36:34.529Z,16.40
2023-02-19T17:39:03.064Z,15.63
2023-02-19T17:41:30.038Z,13.10
2023-02-19T17:43:56.759Z,20.33
2023-02-19T17:46:27.430Z,15.90
2023-02-19T17:48:54.453Z,13.30
2023-02-19T17:51:22.119Z,15.10
2023-02-19T17:53:49.034Z,11.57
2023-02-19T17:56:17.968Z,10.23
2023-02-19T17:58:44.751Z,7.10
2023-02-19T18:01:11.929Z,6.77
2023-02-19T18:03:38.800Z,6.47
2023-02-19T18:06:05.852Z,7.77
2023-02-19T18:08:32.546Z,5.47
2023-02-19T18:10:59.440Z,4.90
2023-02-19T18:13:26.167Z,4.67
2023-02-19T18:15:53.584Z,7.10
2023-02-19T18:18:20.820Z,4.20
2023-02-19T18:20:47.509Z,4.73
2023-02-19T18:23:14.344Z,7.60
2023-02-19T18:25:41.013Z,5.50
2023-02-19T18:28:07.713Z,5.50
2023-02-19T18:30:34.461Z,5.93
2023-02-19T18:33:01.222Z,6.63
2023-02-19T18:35:27.896Z,5.33
2023-02-19T18:37:55.741Z,4.70
2023-02-19T18:40:25.750Z,5.00
2023-02-19T18:42:52.768Z,5.53
2023-02-19T18:45:19.985Z,5.30
2023-02-19T18:47:47.982Z,5.23
2023-02-19T18:50:15.789Z,5.03
2023-02-19T18:52:42.557Z,5.27
2023-02-19T18:55:10.457Z,5.20
2023-02-19T18:57:37.392Z,5.77
2023-02-19T19:00:06.591Z,4.80
2023-02-19T19:02:47.114Z,4.10
2023-02-19T19:05:20.814Z,4.30
2023-02-19T19:07:48.233Z,2.97
2023-02-19T19:10:14.978Z,3.27
2023-02-19T19:12:41.657Z,2.70
2023-02-19T19:15:08.869Z,1.83
2023-02-19T19:17:35.541Z,2.17
2023-02-19T19:20:02.250Z,1.67
2023-02-19T19:22:28.865Z,2.10
2023-02-19T19:24:55.512Z,2.20
2023-02-19T19:27:22.209Z,2.00
2023-02-19T19:29:49.720Z,2.10
2023-02-19T19:32:16.665Z,3.17
2023-02-19T19:34:43.513Z,2.40
2023-02-19T19:37:10.615Z,2.40
2023-02-19T19:39:37.525Z,2.57
2023-02-19T19:42:04.673Z,3.17
2023-02-19T19:44:31.366Z,3.10
2023-02-19T19:46:58.101Z,5.43
2023-02-19T19:49:24.873Z,6.13
2023-02-19T19:51:51.823Z,4.97
2023-02-19T19:54:18.498Z,3.63
2023-02-19T19:56:46.716Z,4.10
2023-02-19T19:59:14.968Z,4.73
2023-02-19T20:01:51.533Z,3.80
2023-02-19T20:04:20.758Z,4.73
2023-02-19T20:06:47.521Z,5.83
2023-02-19T20:09:14.879Z,9.57
2023-02-19T20:11:49.937Z,4.90
2023-02-19T20:14:18.030Z,4.10
2023-02-19T20:16:47.254Z,4.70
2023-02-19T20:19:14.919Z,3.90
2023-02-19T20:21:45.816Z,2.83
2023-02-19T20:24:25.775Z,2.70
2023-02-19T20:27:01.949Z,2.00
2023-02-19T20:29:31.625Z,2.30
2023-02-19T20:31:59.969Z,2.00
2023-02-19T20:34:27.144Z,1.60
2023-02-19T20:36:54.298Z,1.90
2023-02-19T20:39:22.054Z,2.00
2023-02-19T20:41:50.866Z,2.50
2023-02-19T20:44:18.834Z,2.33
2023-02-19T20:46:47.939Z,2.10
2023-02-19T20:49:16.624Z,2.77
2023-02-19T20:51:48.537Z,1.70
2023-02-19T20:54:17.549Z,1.97
2023-02-19T20:56:46.165Z,2.23
2023-02-19T20:59:14.541Z,2.00
2023-02-19T21:01:41.858Z,1.90
2023-02-19T21:04:08.608Z,1.90
2023-02-19T21:06:35.405Z,2.10
2023-02-19T21:09:02.357Z,2.00
2023-02-19T21:11:29.381Z,1.93
2023-02-19T21:13:58.946Z,2.07
2023-02-19T21:16:27.084Z,2.50
2023-02-19T21:18:54.463Z,2.07
2023-02-19T21:21:25.140Z,1.30
2023-02-19T21:23:53.153Z,1.80
2023-02-19T21:26:21.048Z,2.00
2023-02-19T21:28:50.198Z,2.10
2023-02-19T21:31:16.962Z,1.90
2023-02-19T21:33:43.707Z,2.60
2023-02-19T21:36:10.821Z,1.87
2023-02-19T21:38:37.823Z,2.40
2023-02-19T21:41:04.809Z,2.27
2023-02-19T21:43:32.073Z,2.17
2023-02-19T21:45:58.779Z,2.43
2023-02-19T21:48:25.413Z,2.37
2023-02-19T21:50:52.091Z,1.73
2023-02-19T21:53:18.730Z,1.50
2023-02-19T21:55:57.977Z,1.60
2023-02-19T21:58:26.101Z,1.30
2023-02-19T22:00:53.973Z,1.17
2023-02-19T22:03:21.038Z,1.47
2023-02-19T22:05:47.744Z,1.20
2023-02-19T22:08:15.817Z,1.00
2023-02-19T22:10:42.677Z,1.30
2023-02-19T22:13:10.040Z,1.43
2023-02-19T22:15:36.954Z,1.20
2023-02-19T22:18:03.992Z,1.50
2023-02-19T22:20:30.690Z,1.50
2023-02-19T22:22:57.364Z,1.77
2023-02-19T22:25:24.008Z,1.40
2023-02-19T22:27:50.693Z,1.60
2023-02-19T22:30:17.802Z,1.57
2023-02-19T22:32:44.510Z,1.73
2023-02-19T22:35:11.203Z,1.90
2023-02-19T22:37:37.852Z,1.20
2023-02-19T22:40:04.977Z,1.60
2023-02-19T22:42:31.703Z,1.87
2023-02-19T22:44:58.428Z,3.00
2023-02-19T22:47:25.509Z,1.80
2023-02-19T22:49:52.193Z,2.80
2023-02-19T22:52:18.866Z,2.40
2023-02-19T22:54:46.640Z,2.30
2023-02-19T22:57:13.290Z,2.40
2023-02-19T22:59:40.194Z,2.80
2023-02-19T23:02:06.909Z,2.53
2023-02-19T23:04:33.590Z,2.63
2023-02-19T23:07:00.254Z,2.20
2023-02-19T23:09:29.053Z,2.60
2023-02-19T23:12:04.727Z,3.00
2023-02-19T23:14:31.625Z,3.07
2023-02-19T23:16:58.510Z,3.23
2023-02-19T23:19:25.961Z,3.20
2023-02-19T23:21:53.168Z,4.50
2023-02-19T23:24:19.971Z,3.30
2023-02-19T23:26:49.518Z,3.50
2023-02-19T23:29:27.063Z,3.20
2023-02-19T23:31:54.800Z,3.17
2023-02-19T23:34:22.028Z,3.30
2023-02-19T23:36:50.213Z,2.90
2023-02-19T23:39:21.195Z,3.60
2023-02-19T23:41:50.657Z,3.57
2023-02-19T23:44:18.310Z,4.30
2023-02-19T23:46:45.006Z,4.30
2023-02-19T23:49:12.249Z,3.97
2023-02-19T23:51:39.075Z,4.47
2023-02-19T23:54:06.585Z,4.37
2023-02-19T23:56:33.610Z,4.30
2023-02-19T23:59:00.725Z,4.07
